createdAt,value
2019-03-17T00:03:10.383Z,99640.91
2019-03-17T00:08:14.635Z,99636.91
2019-03-17T00:13:18.875Z,99640.09
2019-03-17T00:18:23.121Z,99642.58
2019-03-17T00:23:27.389Z,99615.81
2019-03-17T00:28:31.647Z,99608.31
2019-03-17T00:33:36.580Z,99591.27
2019-03-17T00:38:41.056Z,99585.52
2019-03-17T00:43:45.283Z,99567.34
2019-03-17T00:48:49.517Z,99567.03
2019-03-17T00:53:53.739Z,99538.86
2019-03-17T00:58:57.962Z,99545.55
2019-03-17T01:04:02.179Z,99530.27
2019-03-17T01:09:07.131Z,99539.54
2019-03-17T01:14:11.352Z,99523.54
2019-03-17T01:19:15.667Z,99529.48
2019-03-17T01:24:19.891Z,99526.27
2019-03-17T01:29:24.102Z,99514.10
2019-03-17T01:34:28.332Z,99515.38
2019-03-17T01:39:32.565Z,99513.78
2019-03-17T01:44:36.778Z,99498.28
2019-03-17T01:49:41.128Z,99496.77
2019-03-17T01:54:45.349Z,99495.73
2019-03-17T01:59:49.562Z,99482.05
2019-03-17T02:04:53.806Z,99487.67
2019-03-17T02:09:58.086Z,99486.88
2019-03-17T02:15:02.305Z,99485.19
2019-03-17T02:20:07.107Z,99473.72
2019-03-17T02:25:11.342Z,99473.48
2019-03-17T02:30:15.679Z,99470.58
2019-03-17T02:35:19.941Z,99459.86
2019-03-17T02:40:24.266Z,99462.02
2019-03-17T02:45:28.453Z,99445.72
2019-03-17T02:50:32.677Z,99455.96
2019-03-17T02:55:36.901Z,99447.13
2019-03-17T03:00:41.117Z,99450.09
2019-03-17T03:05:54.998Z,99441.58
2019-03-17T03:10:51.271Z,99444.02
2019-03-17T03:15:55.573Z,99432.75
2019-03-17T03:20:59.792Z,99422.33
2019-03-17T03:26:04.013Z,99411.10
2019-03-17T03:31:08.240Z,99412.25
2019-03-17T03:36:12.512Z,99408.75
2019-03-17T03:41:16.735Z,99408.75
2019-03-17T03:46:20.939Z,99409.48
2019-03-17T03:51:25.180Z,99404.45
2019-03-17T03:56:29.405Z,99410.56
2019-03-17T04:01:33.642Z,99394.20
2019-03-17T04:06:37.861Z,99383.72
2019-03-17T04:11:42.095Z,99373.78
2019-03-17T04:16:46.358Z,99377.73
2019-03-17T04:21:50.549Z,99367.29
2019-03-17T04:26:54.806Z,99380.03
2019-03-17T04:31:59.025Z,99373.31
2019-03-17T04:37:03.284Z,99359.64
2019-03-17T04:42:07.456Z,99351.70
2019-03-17T04:47:11.695Z,99343.16
2019-03-17T04:52:15.929Z,99338.61
2019-03-17T04:57:20.162Z,99331.70
2019-03-17T05:02:24.378Z,99333.83
2019-03-17T05:07:28.624Z,99330.47
2019-03-17T05:12:32.859Z,99328.63
2019-03-17T05:17:37.130Z,99335.05
2019-03-17T05:22:41.354Z,99323.06
2019-03-17T05:27:45.574Z,99310.28
2019-03-17T05:32:49.797Z,99309.60
2019-03-17T05:37:54.031Z,99299.48
2019-03-17T05:42:58.258Z,99299.05
2019-03-17T05:48:02.484Z,99299.35
2019-03-17T05:53:06.739Z,99301.76
2019-03-17T05:58:10.965Z,99292.44
2019-03-17T06:03:15.192Z,99281.56
2019-03-17T06:08:19.418Z,99278.64
2019-03-17T06:13:23.648Z,99289.12
2019-03-17T06:18:27.869Z,99285.68
2019-03-17T06:23:32.095Z,99285.68
2019-03-17T06:28:36.300Z,99285.77
2019-03-17T06:33:40.513Z,99292.45
2019-03-17T06:38:44.744Z,99295.95
2019-03-17T06:43:49.136Z,99294.61
2019-03-17T06:48:53.493Z,99302.66
2019-03-17T06:53:57.732Z,99299.91
2019-03-17T06:59:01.956Z,99304.99
2019-03-17T07:04:06.179Z,99300.70
2019-03-17T07:09:10.402Z,99285.92
2019-03-17T07:14:14.626Z,99296.94
2019-03-17T07:19:18.851Z,99275.98
2019-03-17T07:24:23.230Z,99279.47
2019-03-17T07:29:27.460Z,99282.86
2019-03-17T07:34:32.390Z,99288.77
2019-03-17T07:39:36.924Z,99285.61
2019-03-17T07:44:41.155Z,99289.20
2019-03-17T07:49:45.381Z,99284.99
2019-03-17T07:54:49.626Z,99268.06
2019-03-17T07:59:53.858Z,99274.81
2019-03-17T08:04:58.082Z,99281.00
2019-03-17T08:10:02.328Z,99269.05
2019-03-17T08:15:07.483Z,99257.89
2019-03-17T08:20:11.916Z,99271.63
2019-03-17T08:25:16.160Z,99273.38
2019-03-17T08:30:20.383Z,99270.92
2019-03-17T08:35:24.624Z,99272.47
2019-03-17T08:40:28.860Z,99260.81
2019-03-17T08:45:33.099Z,99262.45
2019-03-17T08:50:37.324Z,99259.52
2019-03-17T08:55:41.725Z,99259.18
2019-03-17T09:00:45.947Z,99270.98
2019-03-17T09:05:50.183Z,99268.83
2019-03-17T09:10:54.404Z,99265.89
2019-03-17T09:15:58.658Z,99272.02
2019-03-17T09:21:02.881Z,99262.70
2019-03-17T09:26:07.318Z,99264.74
2019-03-17T09:31:11.559Z,99262.11
2019-03-17T09:36:15.778Z,99262.91
2019-03-17T09:41:20.058Z,99265.39
2019-03-17T09:46:24.302Z,99262.65
2019-03-17T09:51:28.533Z,99263.51
2019-03-17T09:56:34.596Z,99231.35
2019-03-17T10:01:38.828Z,99267.55
2019-03-17T10:06:43.185Z,99274.50
2019-03-17T10:11:47.541Z,99267.01
2019-03-17T10:16:51.797Z,99246.09
2019-03-17T10:21:56.053Z,99271.56
2019-03-17T10:27:01.276Z,99266.75
2019-03-17T10:32:05.522Z,99271.83
2019-03-17T10:37:09.773Z,99280.67
2019-03-17T10:42:14.017Z,99266.47
2019-03-17T10:47:18.256Z,99288.17
2019-03-17T10:52:22.530Z,99282.03
2019-03-17T10:57:26.760Z,99288.73
2019-03-17T11:02:31.023Z,99272.89
2019-03-17T11:07:35.277Z,99279.62
2019-03-17T11:12:39.509Z,99285.77
2019-03-17T11:17:43.787Z,99279.62
2019-03-17T11:22:48.049Z,99289.81
2019-03-17T11:27:52.283Z,99290.33
2019-03-17T11:32:56.544Z,99288.71
2019-03-17T11:38:00.883Z,99273.45
2019-03-17T11:43:05.606Z,99277.98
2019-03-17T11:48:09.844Z,99281.48
2019-03-17T11:53:14.070Z,99291.94
2019-03-17T11:58:18.321Z,99286.84
2019-03-17T12:03:22.545Z,99298.91
2019-03-17T12:08:26.815Z,99302.65
2019-03-17T12:13:31.086Z,99311.52
2019-03-17T12:18:35.696Z,99274.98
2019-03-17T12:23:40.010Z,99287.91
2019-03-17T12:28:44.762Z,99295.36
2019-03-17T12:33:49.114Z,99264.53
2019-03-17T12:38:53.384Z,99301.50
2019-03-17T12:43:58.165Z,99301.52
2019-03-17T12:49:02.376Z,99294.34
2019-03-17T12:54:06.618Z,99286.56
2019-03-17T12:59:10.852Z,99277.39
2019-03-17T13:04:15.182Z,99298.25
2019-03-17T13:09:19.436Z,99370.17
2019-03-17T13:14:23.654Z,99396.21
2019-03-17T13:19:28.630Z,99406.34
2019-03-17T13:24:32.977Z,99426.09
2019-03-17T13:29:37.271Z,99439.59
2019-03-17T13:34:41.507Z,99445.23
2019-03-17T13:39:45.737Z,99468.59
2019-03-17T13:44:49.971Z,99477.41
2019-03-17T13:49:54.195Z,99481.00
2019-03-17T13:54:58.435Z,99460.67
2019-03-17T14:00:02.660Z,99469.98
2019-03-17T14:05:07.003Z,99485.50
2019-03-17T14:10:14.601Z,99506.09
2019-03-17T14:15:19.046Z,99491.66
2019-03-17T14:20:23.314Z,99475.08
2019-03-17T14:25:27.800Z,99473.24
2019-03-17T14:30:32.969Z,99485.63
2019-03-17T14:35:37.207Z,99481.67
2019-03-17T14:40:52.885Z,99478.91
2019-03-17T14:45:47.383Z,99471.78
2019-03-17T14:50:51.625Z,99504.96
2019-03-17T14:55:56.160Z,99517.52
2019-03-17T15:01:00.432Z,99520.70
2019-03-17T15:06:04.648Z,99530.20
2019-03-17T15:11:08.893Z,99538.66
2019-03-17T15:16:13.149Z,99562.95
2019-03-17T15:21:17.404Z,99572.61
2019-03-17T15:26:21.635Z,99573.54
2019-03-17T15:31:25.917Z,99576.16
2019-03-17T15:36:30.165Z,99575.94
2019-03-17T15:41:34.407Z,99578.94
2019-03-17T15:46:38.747Z,99565.79
2019-03-17T15:51:43.030Z,99568.85
2019-03-17T15:56:47.329Z,99571.58
2019-03-17T16:01:51.605Z,99579.64
2019-03-17T16:06:55.855Z,99578.23
2019-03-17T16:12:00.124Z,99563.59
2019-03-17T16:17:04.426Z,99564.29
2019-03-17T16:22:08.669Z,99567.95
2019-03-17T16:27:15.601Z,99581.60
2019-03-17T16:32:18.891Z,99611.03
2019-03-17T16:37:23.141Z,99609.08
2019-03-17T16:42:27.393Z,99605.86
2019-03-17T16:47:31.626Z,99608.83
2019-03-17T16:52:35.890Z,99632.72
2019-03-17T16:57:40.807Z,99646.15
2019-03-17T17:02:45.096Z,99640.02
2019-03-17T17:07:49.384Z,99653.91
2019-03-17T17:12:53.628Z,99643.37
2019-03-17T17:17:58.221Z,99661.86
2019-03-17T17:23:02.599Z,99679.70
2019-03-17T17:28:06.883Z,99697.97
2019-03-17T17:33:11.319Z,99713.56
2019-03-17T17:38:15.599Z,99734.41
2019-03-17T17:43:20.122Z,99730.59
2019-03-17T17:48:24.630Z,99725.12
2019-03-17T17:53:28.915Z,99725.95
2019-03-17T17:58:33.350Z,99730.91
2019-03-17T18:03:37.888Z,99737.44
2019-03-17T18:08:42.626Z,99738.47
2019-03-17T18:13:46.880Z,99753.64
2019-03-17T18:18:51.418Z,99757.84
2019-03-17T18:23:56.171Z,99747.50
2019-03-17T18:29:00.459Z,99795.37
2019-03-17T18:34:05.033Z,99776.02
2019-03-17T18:39:09.622Z,99791.75
2019-03-17T18:44:14.156Z,99772.52
2019-03-17T18:49:18.544Z,99823.73
2019-03-17T18:54:23.536Z,99826.80
2019-03-17T18:59:27.961Z,99808.78
2019-03-17T19:04:32.329Z,99835.80
2019-03-17T19:09:36.772Z,99849.97
2019-03-17T19:14:41.611Z,99878.13
2019-03-17T19:19:46.024Z,99896.85
2019-03-17T19:24:50.918Z,99892.59
2019-03-17T19:29:55.890Z,99885.41
2019-03-17T19:35:00.819Z,99891.92
2019-03-17T19:40:06.311Z,99880.06
2019-03-17T19:45:11.685Z,99863.26
2019-03-17T19:50:17.122Z,99878.55
2019-03-17T19:55:22.391Z,99846.85
2019-03-17T20:00:27.441Z,99879.77
2019-03-17T20:05:32.529Z,99878.87
2019-03-17T20:10:37.805Z,99881.33
2019-03-17T20:15:43.205Z,99882.54
2019-03-17T20:20:48.024Z,99881.23
2019-03-17T20:25:53.206Z,99891.64
2019-03-17T20:30:57.839Z,99891.43
2019-03-17T20:36:03.164Z,99891.69
2019-03-17T20:41:08.300Z,99903.13
2019-03-17T20:46:12.992Z,99906.91
2019-03-17T20:51:17.514Z,99927.08
2019-03-17T20:56:22.472Z,99914.02
2019-03-17T21:01:26.885Z,99908.61
2019-03-17T21:06:31.559Z,99927.92
2019-03-17T21:11:35.872Z,99935.61
2019-03-17T21:16:40.262Z,99973.59
2019-03-17T21:21:44.543Z,99980.23
2019-03-17T21:26:48.806Z,99980.55
2019-03-17T21:31:53.072Z,99993.02
2019-03-17T21:36:57.328Z,100000.97
2019-03-17T21:42:02.386Z,99988.95
2019-03-17T21:47:06.643Z,100013.84
2019-03-17T21:52:10.911Z,100028.53
2019-03-17T21:57:15.751Z,100014.16
2019-03-17T22:02:20.007Z,100026.38
2019-03-17T22:07:24.261Z,100019.13
2019-03-17T22:12:28.503Z,100018.53
2019-03-17T22:17:32.740Z,100036.06
2019-03-17T22:22:37.421Z,100053.83
2019-03-17T22:27:41.675Z,100064.63
2019-03-17T22:32:45.899Z,100062.70
2019-03-17T22:37:50.166Z,100050.45
2019-03-17T22:42:54.437Z,100061.67
2019-03-17T22:47:58.666Z,100084.22
2019-03-17T22:53:02.899Z,100074.02
2019-03-17T22:58:07.176Z,100068.70
2019-03-17T23:03:13.055Z,100080.55
2019-03-17T23:08:17.279Z,100087.59
2019-03-17T23:13:21.539Z,100101.45
2019-03-17T23:18:25.789Z,100095.23
2019-03-17T23:23:30.083Z,100096.44
2019-03-17T23:28:34.323Z,100091.13
2019-03-17T23:33:38.593Z,100107.45
2019-03-17T23:38:42.836Z,100108.94
2019-03-17T23:43:47.056Z,100105.48
2019-03-17T23:48:51.293Z,100100.05
2019-03-17T23:53:55.559Z,100091.70
2019-03-17T23:58:59.853Z,100085.80
